sensor_id;sensor_type;location;lat;lon;timestamp;P1;durP1;ratioP1;P2;durP2;ratioP2
18820;SDS011;9539;59.332;18.034;2022-09-09T00:01:14;1.38;;;0.90;;
18820;SDS011;9539;59.332;18.034;2022-09-09T00:03:57;0.98;;;0.90;;
18820;SDS011;9539;59.332;18.034;2022-09-09T00:06:26;1.13;;;0.90;;
18820;SDS011;9539;59.332;18.034;2022-09-09T00:09:00;1.00;;;1.00;;
18820;SDS011;9539;59.332;18.034;2022-09-09T00:11:32;1.27;;;1.13;;
18820;SDS011;9539;59.332;18.034;2022-09-09T00:14:10;0.90;;;0.90;;
18820;SDS011;9539;59.332;18.034;2022-09-09T00:16:46;1.00;;;0.90;;
18820;SDS011;9539;59.332;18.034;2022-09-09T00:19:19;1.60;;;0.90;;
18820;SDS011;9539;59.332;18.034;2022-09-09T00:21:51;0.90;;;0.90;;
18820;SDS011;9539;59.332;18.034;2022-09-09T00:24:32;0.93;;;0.90;;
18820;SDS011;9539;59.332;18.034;2022-09-09T00:27:06;0.90;;;0.88;;
18820;SDS011;9539;59.332;18.034;2022-09-09T00:29:41;1.38;;;0.90;;
18820;SDS011;9539;59.332;18.034;2022-09-09T00:32:12;0.80;;;0.80;;
18820;SDS011;9539;59.332;18.034;2022-09-09T00:34:43;1.08;;;0.98;;
18820;SDS011;9539;59.332;18.034;2022-09-09T00:37:15;0.88;;;0.88;;
18820;SDS011;9539;59.332;18.034;2022-09-09T00:39:43;0.82;;;0.80;;
18820;SDS011;9539;59.332;18.034;2022-09-09T00:42:14;1.85;;;0.85;;
18820;SDS011;9539;59.332;18.034;2022-09-09T00:44:56;1.88;;;0.73;;
18820;SDS011;9539;59.332;18.034;2022-09-09T00:47:30;1.02;;;0.93;;
18820;SDS011;9539;59.332;18.034;2022-09-09T00:50:10;0.95;;;0.95;;
18820;SDS011;9539;59.332;18.034;2022-09-09T00:52:58;1.48;;;1.00;;
18820;SDS011;9539;59.332;18.034;2022-09-09T00:55:39;0.88;;;0.80;;
18820;SDS011;9539;59.332;18.034;2022-09-09T00:58:13;0.90;;;0.80;;
18820;SDS011;9539;59.332;18.034;2022-09-09T01:00:43;0.80;;;0.80;;
18820;SDS011;9539;59.332;18.034;2022-09-09T01:03:21;0.80;;;0.80;;
18820;SDS011;9539;59.332;18.034;2022-09-09T01:05:56;0.95;;;0.90;;
18820;SDS011;9539;59.332;18.034;2022-09-09T01:08:34;2.03;;;0.95;;
18820;SDS011;9539;59.332;18.034;2022-09-09T01:11:10;1.10;;;1.00;;
18820;SDS011;9539;59.332;18.034;2022-09-09T01:13:46;1.52;;;1.00;;
18820;SDS011;9539;59.332;18.034;2022-09-09T01:16:21;0.90;;;0.90;;
18820;SDS011;9539;59.332;18.034;2022-09-09T01:18:48;1.48;;;0.90;;
18820;SDS011;9539;59.332;18.034;2022-09-09T01:21:20;1.42;;;0.90;;
18820;SDS011;9539;59.332;18.034;2022-09-09T01:24:12;0.82;;;0.80;;
18820;SDS011;9539;59.332;18.034;2022-09-09T01:26:46;0.80;;;0.80;;
18820;SDS011;9539;59.332;18.034;2022-09-09T01:29:16;0.80;;;0.80;;
18820;SDS011;9539;59.332;18.034;2022-09-09T01:31:51;1.00;;;1.00;;
18820;SDS011;9539;59.332;18.034;2022-09-09T01:34:20;0.80;;;0.80;;
18820;SDS011;9539;59.332;18.034;2022-09-09T01:36:49;0.80;;;0.80;;
18820;SDS011;9539;59.332;18.034;2022-09-09T01:39:23;0.90;;;0.90;;
18820;SDS011;9539;59.332;18.034;2022-09-09T01:41:52;1.15;;;1.05;;
18820;SDS011;9539;59.332;18.034;2022-09-09T01:44:19;1.67;;;1.00;;
18820;SDS011;9539;59.332;18.034;2022-09-09T01:46:47;1.30;;;1.00;;
18820;SDS011;9539;59.332;18.034;2022-09-09T01:49:15;3.15;;;1.00;;
18820;SDS011;9539;59.332;18.034;2022-09-09T01:51:42;0.90;;;0.90;;
18820;SDS011;9539;59.332;18.034;2022-09-09T01:54:12;1.40;;;0.85;;
18820;SDS011;9539;59.332;18.034;2022-09-09T01:56:44;2.42;;;1.00;;
18820;SDS011;9539;59.332;18.034;2022-09-09T01:59:24;0.88;;;0.88;;
18820;SDS011;9539;59.332;18.034;2022-09-09T02:02:09;1.10;;;1.00;;
18820;SDS011;9539;59.332;18.034;2022-09-09T02:04:38;2.40;;;0.80;;
18820;SDS011;9539;59.332;18.034;2022-09-09T02:07:10;0.90;;;0.90;;
18820;SDS011;9539;59.332;18.034;2022-09-09T02:09:47;1.50;;;0.90;;
18820;SDS011;9539;59.332;18.034;2022-09-09T02:12:18;1.10;;;1.00;;
18820;SDS011;9539;59.332;18.034;2022-09-09T02:14:52;1.75;;;1.13;;
18820;SDS011;9539;59.332;18.034;2022-09-09T02:17:25;1.27;;;1.00;;
18820;SDS011;9539;59.332;18.034;2022-09-09T02:19:56;1.02;;;0.93;;
18820;SDS011;9539;59.332;18.034;2022-09-09T02:22:28;1.77;;;1.10;;
18820;SDS011;9539;59.332;18.034;2022-09-09T02:25:00;1.02;;;1.00;;
18820;SDS011;9539;59.332;18.034;2022-09-09T02:27:26;1.08;;;0.90;;
18820;SDS011;9539;59.332;18.034;2022-09-09T02:29:55;2.05;;;0.90;;
18820;SDS011;9539;59.332;18.034;2022-09-09T02:32:27;1.67;;;0.90;;
18820;SDS011;9539;59.332;18.034;2022-09-09T02:34:58;1.65;;;1.10;;
18820;SDS011;9539;59.332;18.034;2022-09-09T02:37:31;1.95;;;1.10;;
18820;SDS011;9539;59.332;18.034;2022-09-09T02:40:02;1.92;;;0.93;;
18820;SDS011;9539;59.332;18.034;2022-09-09T02:42:29;2.47;;;1.00;;
18820;SDS011;9539;59.332;18.034;2022-09-09T02:44:57;0.90;;;0.90;;
18820;SDS011;9539;59.332;18.034;2022-09-09T02:47:25;1.90;;;1.10;;
18820;SDS011;9539;59.332;18.034;2022-09-09T02:50:02;1.23;;;1.10;;
18820;SDS011;9539;59.332;18.034;2022-09-09T02:52:38;1.85;;;1.10;;
18820;SDS011;9539;59.332;18.034;2022-09-09T02:55:16;3.20;;;1.10;;
18820;SDS011;9539;59.332;18.034;2022-09-09T02:57:47;3.22;;;1.00;;
18820;SDS011;9539;59.332;18.034;2022-09-09T03:00:17;1.00;;;0.80;;
18820;SDS011;9539;59.332;18.034;2022-09-09T03:02:49;1.10;;;1.00;;
18820;SDS011;9539;59.332;18.034;2022-09-09T03:05:16;1.60;;;1.08;;
18820;SDS011;9539;59.332;18.034;2022-09-09T03:07:43;3.63;;;1.30;;
18820;SDS011;9539;59.332;18.034;2022-09-09T03:10:10;1.80;;;1.00;;
18820;SDS011;9539;59.332;18.034;2022-09-09T03:12:37;1.13;;;1.02;;
18820;SDS011;9539;59.332;18.034;2022-09-09T03:15:05;5.18;;;1.10;;
18820;SDS011;9539;59.332;18.034;2022-09-09T03:17:34;1.23;;;1.10;;
18820;SDS011;9539;59.332;18.034;2022-09-09T03:20:01;2.20;;;1.00;;
18820;SDS011;9539;59.332;18.034;2022-09-09T03:22:28;1.20;;;1.10;;
18820;SDS011;9539;59.332;18.034;2022-09-09T03:24:56;1.73;;;1.00;;
18820;SDS011;9539;59.332;18.034;2022-09-09T03:27:22;3.35;;;1.10;;
18820;SDS011;9539;59.332;18.034;2022-09-09T03:29:49;2.53;;;1.40;;
18820;SDS011;9539;59.332;18.034;2022-09-09T03:32:16;1.50;;;1.00;;
18820;SDS011;9539;59.332;18.034;2022-09-09T03:34:45;1.10;;;1.00;;
18820;SDS011;9539;59.332;18.034;2022-09-09T03:37:14;1.67;;;1.10;;
18820;SDS011;9539;59.332;18.034;2022-09-09T03:39:42;1.92;;;1.05;;
18820;SDS011;9539;59.332;18.034;2022-09-09T03:42:09;1.77;;;1.20;;
18820;SDS011;9539;59.332;18.034;2022-09-09T03:44:39;1.50;;;1.10;;
18820;SDS011;9539;59.332;18.034;2022-09-09T03:47:07;1.92;;;1.08;;
18820;SDS011;9539;59.332;18.034;2022-09-09T03:49:33;1.10;;;1.00;;
18820;SDS011;9539;59.332;18.034;2022-09-09T03:52:02;3.50;;;1.17;;
18820;SDS011;9539;59.332;18.034;2022-09-09T03:54:29;1.15;;;1.08;;
18820;SDS011;9539;59.332;18.034;2022-09-09T03:56:55;2.17;;;1.27;;
18820;SDS011;9539;59.332;18.034;2022-09-09T03:59:23;1.10;;;1.00;;
18820;SDS011;9539;59.332;18.034;2022-09-09T04:01:50;1.65;;;1.02;;
18820;SDS011;9539;59.332;18.034;2022-09-09T04:04:17;1.60;;;1.20;;
18820;SDS011;9539;59.332;18.034;2022-09-09T04:06:45;1.13;;;0.98;;
18820;SDS011;9539;59.332;18.034;2022-09-09T04:09:14;4.15;;;1.10;;
18820;SDS011;9539;59.332;18.034;2022-09-09T04:11:41;2.70;;;1.33;;
18820;SDS011;9539;59.332;18.034;2022-09-09T04:14:08;2.28;;;1.30;;
18820;SDS011;9539;59.332;18.034;2022-09-09T04:16:35;1.88;;;1.02;;
18820;SDS011;9539;59.332;18.034;2022-09-09T04:19:02;1.15;;;1.10;;
18820;SDS011;9539;59.332;18.034;2022-09-09T04:21:31;2.20;;;1.00;;
18820;SDS011;9539;59.332;18.034;2022-09-09T04:23:58;2.33;;;1.20;;
18820;SDS011;9539;59.332;18.034;2022-09-09T04:26:26;3.47;;;1.25;;
18820;SDS011;9539;59.332;18.034;2022-09-09T04:28:53;3.78;;;1.33;;
18820;SDS011;9539;59.332;18.034;2022-09-09T04:31:21;1.50;;;1.13;;
18820;SDS011;9539;59.332;18.034;2022-09-09T04:33:48;1.45;;;1.02;;
18820;SDS011;9539;59.332;18.034;2022-09-09T04:36:16;1.58;;;1.20;;
18820;SDS011;9539;59.332;18.034;2022-09-09T04:38:44;2.22;;;1.60;;
18820;SDS011;9539;59.332;18.034;2022-09-09T04:41:11;3.25;;;1.30;;
18820;SDS011;9539;59.332;18.034;2022-09-09T04:43:40;1.10;;;1.00;;
18820;SDS011;9539;59.332;18.034;2022-09-09T04:46:06;1.65;;;0.93;;
18820;SDS011;9539;59.332;18.034;2022-09-09T04:48:33;1.17;;;1.08;;
18820;SDS011;9539;59.332;18.034;2022-09-09T04:51:01;1.98;;;1.20;;
18820;SDS011;9539;59.332;18.034;2022-09-09T04:53:30;1.92;;;1.30;;
18820;SDS011;9539;59.332;18.034;2022-09-09T04:56:02;1.27;;;1.17;;
18820;SDS011;9539;59.332;18.034;2022-09-09T04:58:30;2.08;;;1.10;;
18820;SDS011;9539;59.332;18.034;2022-09-09T05:01:04;2.25;;;1.10;;
18820;SDS011;9539;59.332;18.034;2022-09-09T05:03:31;2.60;;;1.00;;
18820;SDS011;9539;59.332;18.034;2022-09-09T05:06:02;3.58;;;1.27;;
18820;SDS011;9539;59.332;18.034;2022-09-09T05:08:30;1.40;;;1.17;;
18820;SDS011;9539;59.332;18.034;2022-09-09T05:10:57;1.45;;;1.10;;
18820;SDS011;9539;59.332;18.034;2022-09-09T05:13:24;5.32;;;1.13;;
18820;SDS011;9539;59.332;18.034;2022-09-09T05:15:51;1.40;;;0.90;;
18820;SDS011;9539;59.332;18.034;2022-09-09T05:18:20;2.05;;;1.02;;
18820;SDS011;9539;59.332;18.034;2022-09-09T05:20:47;2.58;;;1.08;;
18820;SDS011;9539;59.332;18.034;2022-09-09T05:23:16;3.17;;;1.20;;
18820;SDS011;9539;59.332;18.034;2022-09-09T05:25:42;1.52;;;1.10;;
18820;SDS011;9539;59.332;18.034;2022-09-09T05:28:11;1.33;;;1.00;;
18820;SDS011;9539;59.332;18.034;2022-09-09T05:30:38;0.80;;;0.80;;
18820;SDS011;9539;59.332;18.034;2022-09-09T05:33:05;1.58;;;1.10;;
18820;SDS011;9539;59.332;18.034;2022-09-09T05:35:35;1.15;;;0.93;;
18820;SDS011;9539;59.332;18.034;2022-09-09T05:38:03;1.67;;;1.00;;
18820;SDS011;9539;59.332;18.034;2022-09-09T05:40:29;2.95;;;1.17;;
18820;SDS011;9539;59.332;18.034;2022-09-09T05:42:59;3.20;;;1.17;;
18820;SDS011;9539;59.332;18.034;2022-09-09T05:45:26;3.33;;;1.10;;
18820;SDS011;9539;59.332;18.034;2022-09-09T05:47:53;1.40;;;0.90;;
18820;SDS011;9539;59.332;18.034;2022-09-09T05:50:20;1.52;;;1.10;;
18820;SDS011;9539;59.332;18.034;2022-09-09T05:52:49;2.35;;;1.25;;
18820;SDS011;9539;59.332;18.034;2022-09-09T05:55:15;1.40;;;1.00;;
18820;SDS011;9539;59.332;18.034;2022-09-09T05:57:47;1.10;;;1.00;;
18820;SDS011;9539;59.332;18.034;2022-09-09T06:00:16;1.70;;;0.75;;
18820;SDS011;9539;59.332;18.034;2022-09-09T06:02:49;1.00;;;1.00;;
18820;SDS011;9539;59.332;18.034;2022-09-09T06:05:17;1.48;;;1.00;;
18820;SDS011;9539;59.332;18.034;2022-09-09T06:07:44;2.00;;;0.90;;
18820;SDS011;9539;59.332;18.034;2022-09-09T06:10:12;0.98;;;0.95;;
18820;SDS011;9539;59.332;18.034;2022-09-09T06:12:39;0.98;;;0.90;;
18820;SDS011;9539;59.332;18.034;2022-09-09T06:15:06;1.58;;;1.00;;
18820;SDS011;9539;59.332;18.034;2022-09-09T06:17:34;2.58;;;1.00;;
18820;SDS011;9539;59.332;18.034;2022-09-09T06:20:01;1.08;;;0.98;;
18820;SDS011;9539;59.332;18.034;2022-09-09T06:22:29;1.02;;;1.00;;
18820;SDS011;9539;59.332;18.034;2022-09-09T06:24:56;1.55;;;0.80;;
18820;SDS011;9539;59.332;18.034;2022-09-09T06:27:24;0.88;;;0.85;;
18820;SDS011;9539;59.332;18.034;2022-09-09T06:29:51;2.97;;;1.30;;
18820;SDS011;9539;59.332;18.034;2022-09-09T06:32:17;1.10;;;1.00;;
18820;SDS011;9539;59.332;18.034;2022-09-09T06:34:45;2.78;;;1.00;;
18820;SDS011;9539;59.332;18.034;2022-09-09T06:37:14;1.80;;;0.90;;
18820;SDS011;9539;59.332;18.034;2022-09-09T06:39:41;1.17;;;0.98;;
18820;SDS011;9539;59.332;18.034;2022-09-09T06:42:07;2.85;;;1.00;;
18820;SDS011;9539;59.332;18.034;2022-09-09T06:44:36;1.95;;;1.08;;
18820;SDS011;9539;59.332;18.034;2022-09-09T06:47:03;1.20;;;1.10;;
18820;SDS011;9539;59.332;18.034;2022-09-09T06:49:30;3.22;;;1.00;;
18820;SDS011;9539;59.332;18.034;2022-09-09T06:51:57;3.20;;;0.98;;
18820;SDS011;9539;59.332;18.034;2022-09-09T06:54:24;1.83;;;1.10;;
18820;SDS011;9539;59.332;18.034;2022-09-09T06:56:50;2.60;;;1.00;;
18820;SDS011;9539;59.332;18.034;2022-09-09T06:59:17;1.50;;;1.13;;
18820;SDS011;9539;59.332;18.034;2022-09-09T07:01:46;3.90;;;1.00;;
18820;SDS011;9539;59.332;18.034;2022-09-09T07:04:13;3.40;;;0.90;;
18820;SDS011;9539;59.332;18.034;2022-09-09T07:06:40;1.60;;;1.10;;
18820;SDS011;9539;59.332;18.034;2022-09-09T07:09:09;4.00;;;1.27;;
18820;SDS011;9539;59.332;18.034;2022-09-09T07:11:38;5.00;;;1.17;;
18820;SDS011;9539;59.332;18.034;2022-09-09T07:14:06;1.45;;;1.00;;
18820;SDS011;9539;59.332;18.034;2022-09-09T07:16:33;2.50;;;1.00;;
18820;SDS011;9539;59.332;18.034;2022-09-09T07:19:03;2.00;;;1.00;;
18820;SDS011;9539;59.332;18.034;2022-09-09T07:21:31;2.78;;;1.00;;
18820;SDS011;9539;59.332;18.034;2022-09-09T07:23:58;2.90;;;1.08;;
18820;SDS011;9539;59.332;18.034;2022-09-09T07:26:26;2.80;;;1.10;;
18820;SDS011;9539;59.332;18.034;2022-09-09T07:28:54;3.17;;;1.10;;
18820;SDS011;9539;59.332;18.034;2022-09-09T07:31:23;1.30;;;1.00;;
18820;SDS011;9539;59.332;18.034;2022-09-09T07:33:51;3.58;;;1.10;;
18820;SDS011;9539;59.332;18.034;2022-09-09T07:36:20;1.73;;;1.27;;
18820;SDS011;9539;59.332;18.034;2022-09-09T07:38:49;1.98;;;0.90;;
18820;SDS011;9539;59.332;18.034;2022-09-09T07:41:19;3.05;;;1.13;;
18820;SDS011;9539;59.332;18.034;2022-09-09T07:43:48;4.05;;;1.15;;
18820;SDS011;9539;59.332;18.034;2022-09-09T07:46:16;0.82;;;0.82;;
18820;SDS011;9539;59.332;18.034;2022-09-09T07:48:45;2.40;;;0.90;;
18820;SDS011;9539;59.332;18.034;2022-09-09T07:51:16;1.77;;;1.10;;
18820;SDS011;9539;59.332;18.034;2022-09-09T07:53:46;1.73;;;1.15;;
18820;SDS011;9539;59.332;18.034;2022-09-09T07:56:13;1.75;;;1.15;;
18820;SDS011;9539;59.332;18.034;2022-09-09T07:58:44;1.20;;;1.10;;
18820;SDS011;9539;59.332;18.034;2022-09-09T08:01:12;4.43;;;1.40;;
18820;SDS011;9539;59.332;18.034;2022-09-09T08:03:43;1.27;;;1.00;;
18820;SDS011;9539;59.332;18.034;2022-09-09T08:06:10;2.30;;;0.95;;
18820;SDS011;9539;59.332;18.034;2022-09-09T08:08:39;1.80;;;0.88;;
18820;SDS011;9539;59.332;18.034;2022-09-09T08:11:09;4.43;;;1.25;;
18820;SDS011;9539;59.332;18.034;2022-09-09T08:13:37;1.75;;;0.90;;
18820;SDS011;9539;59.332;18.034;2022-09-09T08:16:06;1.73;;;1.00;;
18820;SDS011;9539;59.332;18.034;2022-09-09T08:18:34;1.73;;;0.90;;
18820;SDS011;9539;59.332;18.034;2022-09-09T08:21:05;4.03;;;1.10;;
18820;SDS011;9539;59.332;18.034;2022-09-09T08:23:37;5.13;;;1.17;;
18820;SDS011;9539;59.332;18.034;2022-09-09T08:26:09;1.88;;;1.10;;
18820;SDS011;9539;59.332;18.034;2022-09-09T08:28:38;2.78;;;1.25;;
18820;SDS011;9539;59.332;18.034;2022-09-09T08:31:09;1.98;;;0.93;;
18820;SDS011;9539;59.332;18.034;2022-09-09T08:33:37;7.65;;;1.13;;
18820;SDS011;9539;59.332;18.034;2022-09-09T08:36:04;1.65;;;1.00;;
18820;SDS011;9539;59.332;18.034;2022-09-09T08:38:32;1.08;;;0.90;;
18820;SDS011;9539;59.332;18.034;2022-09-09T08:41:03;2.15;;;0.98;;
18820;SDS011;9539;59.332;18.034;2022-09-09T08:43:47;2.67;;;1.10;;
18820;SDS011;9539;59.332;18.034;2022-09-09T08:46:18;1.50;;;1.15;;
18820;SDS011;9539;59.332;18.034;2022-09-09T08:48:52;1.60;;;0.98;;
18820;SDS011;9539;59.332;18.034;2022-09-09T08:51:25;2.70;;;0.93;;
18820;SDS011;9539;59.332;18.034;2022-09-09T08:53:56;4.43;;;1.13;;
18820;SDS011;9539;59.332;18.034;2022-09-09T08:56:30;3.47;;;1.20;;
18820;SDS011;9539;59.332;18.034;2022-09-09T08:58:59;1.25;;;1.02;;
18820;SDS011;9539;59.332;18.034;2022-09-09T09:01:45;1.17;;;1.15;;
18820;SDS011;9539;59.332;18.034;2022-09-09T09:04:37;4.15;;;1.40;;
18820;SDS011;9539;59.332;18.034;2022-09-09T09:07:14;2.33;;;1.10;;
18820;SDS011;9539;59.332;18.034;2022-09-09T09:09:52;1.65;;;1.10;;
18820;SDS011;9539;59.332;18.034;2022-09-09T09:12:26;3.38;;;1.10;;
18820;SDS011;9539;59.332;18.034;2022-09-09T09:14:57;1.52;;;1.00;;
18820;SDS011;9539;59.332;18.034;2022-09-09T09:17:26;1.70;;;1.10;;
18820;SDS011;9539;59.332;18.034;2022-09-09T09:19:58;3.20;;;1.10;;
18820;SDS011;9539;59.332;18.034;2022-09-09T09:22:26;1.63;;;1.10;;
18820;SDS011;9539;59.332;18.034;2022-09-09T09:25:00;1.05;;;1.05;;
18820;SDS011;9539;59.332;18.034;2022-09-09T09:27:39;1.20;;;1.10;;
18820;SDS011;9539;59.332;18.034;2022-09-09T09:30:13;3.28;;;1.02;;
18820;SDS011;9539;59.332;18.034;2022-09-09T09:32:43;4.05;;;1.25;;
18820;SDS011;9539;59.332;18.034;2022-09-09T09:35:15;3.45;;;1.17;;
18820;SDS011;9539;59.332;18.034;2022-09-09T09:37:42;1.40;;;1.08;;
18820;SDS011;9539;59.332;18.034;2022-09-09T09:40:11;1.25;;;1.15;;
18820;SDS011;9539;59.332;18.034;2022-09-09T09:42:48;3.72;;;1.45;;
18820;SDS011;9539;59.332;18.034;2022-09-09T09:45:20;4.55;;;1.27;;
18820;SDS011;9539;59.332;18.034;2022-09-09T09:48:01;1.65;;;1.25;;
18820;SDS011;9539;59.332;18.034;2022-09-09T09:50:31;2.65;;;1.10;;
18820;SDS011;9539;59.332;18.034;2022-09-09T09:53:00;1.45;;;1.00;;
18820;SDS011;9539;59.332;18.034;2022-09-09T09:55:30;4.00;;;1.27;;
18820;SDS011;9539;59.332;18.034;2022-09-09T09:58:04;2.08;;;1.30;;
18820;SDS011;9539;59.332;18.034;2022-09-09T10:00:32;1.85;;;1.38;;
18820;SDS011;9539;59.332;18.034;2022-09-09T10:03:00;4.47;;;1.25;;
18820;SDS011;9539;59.332;18.034;2022-09-09T10:05:28;2.10;;;1.20;;
18820;SDS011;9539;59.332;18.034;2022-09-09T10:08:08;3.60;;;1.20;;
18820;SDS011;9539;59.332;18.034;2022-09-09T10:10:40;2.80;;;1.20;;
18820;SDS011;9539;59.332;18.034;2022-09-09T10:13:18;1.85;;;1.10;;
18820;SDS011;9539;59.332;18.034;2022-09-09T10:15:53;1.38;;;1.10;;
18820;SDS011;9539;59.332;18.034;2022-09-09T10:18:36;1.67;;;0.98;;
18820;SDS011;9539;59.332;18.034;2022-09-09T10:21:12;1.88;;;1.25;;
18820;SDS011;9539;59.332;18.034;2022-09-09T10:23:52;5.55;;;1.42;;
18820;SDS011;9539;59.332;18.034;2022-09-09T10:26:36;2.05;;;1.20;;
18820;SDS011;9539;59.332;18.034;2022-09-09T10:29:17;4.90;;;1.30;;
18820;SDS011;9539;59.332;18.034;2022-09-09T10:32:02;2.38;;;1.10;;
18820;SDS011;9539;59.332;18.034;2022-09-09T10:37:27;3.25;;;1.42;;
18820;SDS011;9539;59.332;18.034;2022-09-09T10:40:19;3.53;;;1.30;;
18820;SDS011;9539;59.332;18.034;2022-09-09T10:42:55;3.03;;;0.95;;
18820;SDS011;9539;59.332;18.034;2022-09-09T10:45:36;4.28;;;1.23;;
18820;SDS011;9539;59.332;18.034;2022-09-09T10:48:20;1.75;;;1.10;;
18820;SDS011;9539;59.332;18.034;2022-09-09T10:50:59;4.35;;;1.10;;
18820;SDS011;9539;59.332;18.034;2022-09-09T10:53:45;2.53;;;1.05;;
18820;SDS011;9539;59.332;18.034;2022-09-09T10:56:19;1.83;;;1.10;;
18820;SDS011;9539;59.332;18.034;2022-09-09T10:58:50;2.88;;;1.50;;
18820;SDS011;9539;59.332;18.034;2022-09-09T11:01:27;1.08;;;0.98;;
18820;SDS011;9539;59.332;18.034;2022-09-09T11:03:59;1.90;;;1.10;;
18820;SDS011;9539;59.332;18.034;2022-09-09T11:06:32;1.13;;;1.02;;
18820;SDS011;9539;59.332;18.034;2022-09-09T11:09:03;1.88;;;1.02;;
18820;SDS011;9539;59.332;18.034;2022-09-09T11:11:33;1.98;;;1.10;;
18820;SDS011;9539;59.332;18.034;2022-09-09T11:14:08;5.38;;;1.58;;
18820;SDS011;9539;59.332;18.034;2022-09-09T11:16:44;1.83;;;1.30;;
18820;SDS011;9539;59.332;18.034;2022-09-09T11:19:16;3.90;;;1.15;;
18820;SDS011;9539;59.332;18.034;2022-09-09T11:21:49;1.67;;;1.10;;
18820;SDS011;9539;59.332;18.034;2022-09-09T11:24:18;3.05;;;0.90;;
18820;SDS011;9539;59.332;18.034;2022-09-09T11:26:51;1.67;;;1.23;;
18820;SDS011;9539;59.332;18.034;2022-09-09T11:35:34;1.83;;;1.20;;
18820;SDS011;9539;59.332;18.034;2022-09-09T11:38:15;1.45;;;1.02;;
18820;SDS011;9539;59.332;18.034;2022-09-09T11:40:46;2.10;;;1.27;;
18820;SDS011;9539;59.332;18.034;2022-09-09T11:43:21;2.72;;;1.20;;
18820;SDS011;9539;59.332;18.034;2022-09-09T11:45:52;3.72;;;1.33;;
18820;SDS011;9539;59.332;18.034;2022-09-09T11:48:25;6.00;;;1.33;;
18820;SDS011;9539;59.332;18.034;2022-09-09T11:50:59;1.38;;;1.23;;
18820;SDS011;9539;59.332;18.034;2022-09-09T11:53:30;1.60;;;1.30;;
18820;SDS011;9539;59.332;18.034;2022-09-09T11:58:54;2.60;;;1.23;;
18820;SDS011;9539;59.332;18.034;2022-09-09T12:01:27;1.55;;;1.33;;
18820;SDS011;9539;59.332;18.034;2022-09-09T12:04:09;2.00;;;1.20;;
18820;SDS011;9539;59.332;18.034;2022-09-09T12:06:44;2.15;;;1.00;;
18820;SDS011;9539;59.332;18.034;2022-09-09T12:09:17;1.58;;;1.20;;
18820;SDS011;9539;59.332;18.034;2022-09-09T12:11:49;3.83;;;1.20;;
18820;SDS011;9539;59.332;18.034;2022-09-09T12:14:20;5.07;;;1.30;;
18820;SDS011;9539;59.332;18.034;2022-09-09T12:16:48;2.25;;;1.30;;
18820;SDS011;9539;59.332;18.034;2022-09-09T12:19:18;1.20;;;1.10;;
18820;SDS011;9539;59.332;18.034;2022-09-09T12:21:52;1.73;;;1.30;;
18820;SDS011;9539;59.332;18.034;2022-09-09T12:24:28;2.72;;;1.50;;
18820;SDS011;9539;59.332;18.034;2022-09-09T12:27:01;1.65;;;1.10;;
18820;SDS011;9539;59.332;18.034;2022-09-09T12:29:36;4.82;;;1.60;;
18820;SDS011;9539;59.332;18.034;2022-09-09T12:32:14;1.95;;;1.17;;
18820;SDS011;9539;59.332;18.034;2022-09-09T12:34:46;2.72;;;1.30;;
18820;SDS011;9539;59.332;18.034;2022-09-09T12:37:17;1.65;;;1.23;;
18820;SDS011;9539;59.332;18.034;2022-09-09T12:39:56;1.40;;;1.30;;
18820;SDS011;9539;59.332;18.034;2022-09-09T12:42:25;2.60;;;1.40;;
18820;SDS011;9539;59.332;18.034;2022-09-09T12:44:54;3.92;;;2.03;;
18820;SDS011;9539;59.332;18.034;2022-09-09T12:47:23;4.57;;;1.40;;
18820;SDS011;9539;59.332;18.034;2022-09-09T12:49:55;1.67;;;1.20;;
18820;SDS011;9539;59.332;18.034;2022-09-09T12:52:24;3.05;;;1.30;;
18820;SDS011;9539;59.332;18.034;2022-09-09T12:54:55;1.65;;;1.33;;
18820;SDS011;9539;59.332;18.034;2022-09-09T12:57:23;2.40;;;1.30;;
18820;SDS011;9539;59.332;18.034;2022-09-09T12:59:52;3.60;;;1.35;;
18820;SDS011;9539;59.332;18.034;2022-09-09T13:02:30;3.03;;;1.50;;
18820;SDS011;9539;59.332;18.034;2022-09-09T13:05:08;2.20;;;1.25;;
18820;SDS011;9539;59.332;18.034;2022-09-09T13:07:41;2.53;;;1.30;;
18820;SDS011;9539;59.332;18.034;2022-09-09T13:10:10;1.30;;;1.20;;
18820;SDS011;9539;59.332;18.034;2022-09-09T13:12:38;1.70;;;1.42;;
18820;SDS011;9539;59.332;18.034;2022-09-09T13:15:05;3.97;;;1.50;;
18820;SDS011;9539;59.332;18.034;2022-09-09T13:17:41;5.45;;;1.30;;
18820;SDS011;9539;59.332;18.034;2022-09-09T13:20:15;1.60;;;1.40;;
18820;SDS011;9539;59.332;18.034;2022-09-09T13:22:43;1.48;;;1.38;;
18820;SDS011;9539;59.332;18.034;2022-09-09T13:25:18;3.78;;;1.50;;
18820;SDS011;9539;59.332;18.034;2022-09-09T13:27:56;2.83;;;1.38;;
18820;SDS011;9539;59.332;18.034;2022-09-09T13:30:26;2.22;;;1.35;;
18820;SDS011;9539;59.332;18.034;2022-09-09T13:33:01;1.40;;;1.30;;
18820;SDS011;9539;59.332;18.034;2022-09-09T13:35:34;1.98;;;1.50;;
18820;SDS011;9539;59.332;18.034;2022-09-09T13:38:08;2.65;;;1.10;;
18820;SDS011;9539;59.332;18.034;2022-09-09T13:40:35;5.28;;;1.50;;
18820;SDS011;9539;59.332;18.034;2022-09-09T13:43:03;2.25;;;1.30;;
18820;SDS011;9539;59.332;18.034;2022-09-09T13:45:30;1.40;;;1.30;;
18820;SDS011;9539;59.332;18.034;2022-09-09T13:47:59;3.72;;;1.30;;
18820;SDS011;9539;59.332;18.034;2022-09-09T13:50:36;2.05;;;1.40;;
18820;SDS011;9539;59.332;18.034;2022-09-09T13:53:03;1.40;;;1.30;;
18820;SDS011;9539;59.332;18.034;2022-09-09T13:55:30;2.63;;;1.63;;
18820;SDS011;9539;59.332;18.034;2022-09-09T13:57:58;4.25;;;1.52;;
18820;SDS011;9539;59.332;18.034;2022-09-09T14:00:28;2.83;;;1.50;;
18820;SDS011;9539;59.332;18.034;2022-09-09T14:02:56;1.92;;;1.25;;
18820;SDS011;9539;59.332;18.034;2022-09-09T14:05:25;1.52;;;1.30;;
18820;SDS011;9539;59.332;18.034;2022-09-09T14:07:53;2.22;;;1.30;;
18820;SDS011;9539;59.332;18.034;2022-09-09T14:10:20;1.30;;;1.20;;
18820;SDS011;9539;59.332;18.034;2022-09-09T14:12:47;1.52;;;1.13;;
18820;SDS011;9539;59.332;18.034;2022-09-09T14:15:14;1.70;;;1.40;;
18820;SDS011;9539;59.332;18.034;2022-09-09T14:17:41;2.50;;;1.30;;
18820;SDS011;9539;59.332;18.034;2022-09-09T14:20:09;3.63;;;1.55;;
18820;SDS011;9539;59.332;18.034;2022-09-09T14:22:37;2.72;;;1.92;;
18820;SDS011;9539;59.332;18.034;2022-09-09T14:25:06;1.40;;;1.30;;
18820;SDS011;9539;59.332;18.034;2022-09-09T14:27:34;2.10;;;1.40;;
18820;SDS011;9539;59.332;18.034;2022-09-09T14:30:01;2.25;;;1.30;;
18820;SDS011;9539;59.332;18.034;2022-09-09T14:32:28;2.83;;;1.35;;
18820;SDS011;9539;59.332;18.034;2022-09-09T14:34:55;3.40;;;1.70;;
18820;SDS011;9539;59.332;18.034;2022-09-09T14:37:21;4.45;;;1.30;;
18820;SDS011;9539;59.332;18.034;2022-09-09T14:39:49;2.65;;;1.38;;
18820;SDS011;9539;59.332;18.034;2022-09-09T14:42:18;3.42;;;1.40;;
18820;SDS011;9539;59.332;18.034;2022-09-09T14:44:48;4.00;;;1.60;;
18820;SDS011;9539;59.332;18.034;2022-09-09T14:47:15;2.42;;;1.30;;
18820;SDS011;9539;59.332;18.034;2022-09-09T14:49:42;2.28;;;1.30;;
18820;SDS011;9539;59.332;18.034;2022-09-09T14:52:09;1.73;;;1.20;;
18820;SDS011;9539;59.332;18.034;2022-09-09T14:54:36;2.63;;;1.42;;
18820;SDS011;9539;59.332;18.034;2022-09-09T14:57:03;1.50;;;1.20;;
18820;SDS011;9539;59.332;18.034;2022-09-09T14:59:31;3.00;;;1.45;;
18820;SDS011;9539;59.332;18.034;2022-09-09T15:01:59;6.70;;;1.65;;
18820;SDS011;9539;59.332;18.034;2022-09-09T15:04:29;3.70;;;1.58;;
18820;SDS011;9539;59.332;18.034;2022-09-09T15:06:55;2.83;;;1.48;;
18820;SDS011;9539;59.332;18.034;2022-09-09T15:09:23;1.48;;;1.30;;
18820;SDS011;9539;59.332;18.034;2022-09-09T15:11:50;2.22;;;1.42;;
18820;SDS011;9539;59.332;18.034;2022-09-09T15:14:17;3.08;;;1.40;;
18820;SDS011;9539;59.332;18.034;2022-09-09T15:16:45;2.20;;;1.70;;
18820;SDS011;9539;59.332;18.034;2022-09-09T15:19:12;4.82;;;1.65;;
18820;SDS011;9539;59.332;18.034;2022-09-09T15:21:38;1.83;;;1.67;;